Terminal Aerodrome Forecast
Issued by NWS

Home | Current Version | Previous Version | Text Only | Print | Product List | Glossary On
Versions: 1 2 3 4 5 6 7 8 9 10 11 12 13 14 15 16 17 18 19 20 21 22 23 24 25 26 27 28
000
FTUS45 KGJT 101132
TAFVEL
TAF
KVEL 101132Z 1012/1112 VRB03KT P6SM SCT100 BKN180
     FM101800 25008KT P6SM VCTS SCT100CB BKN180
     FM110100 30008KT P6SM VCSH SCT080 OVC100
     FM110600 32005KT P6SM SCT100 BKN250=

USA.gov is the U.S. government's official web portal to all federal, state and local government web resources and services.